sensor_id;sensor_type;location;lat;lon;timestamp;pressure;altitude;pressure_sealevel;temperature;humidity
55010;BME280;40903;51.638;7.528;2023-05-10T00:01:51;100160.59;;;14.54;100.00
55010;BME280;40903;51.638;7.528;2023-05-10T00:04:16;100164.59;;;14.56;100.00
55010;BME280;40903;51.638;7.528;2023-05-10T00:06:41;100168.81;;;14.54;100.00
55010;BME280;40903;51.638;7.528;2023-05-10T00:09:06;100162.19;;;14.55;100.00
55010;BME280;40903;51.638;7.528;2023-05-10T00:11:32;100170.91;;;14.57;100.00
55010;BME280;40903;51.638;7.528;2023-05-10T00:13:57;100163.81;;;14.56;100.00
55010;BME280;40903;51.638;7.528;2023-05-10T00:16:22;100165.56;;;14.60;100.00
55010;BME280;40903;51.638;7.528;2023-05-10T00:18:48;100166.09;;;14.54;100.00
55010;BME280;40903;51.638;7.528;2023-05-10T00:21:13;100158.97;;;14.53;100.00
55010;BME280;40903;51.638;7.528;2023-05-10T00:23:38;100158.00;;;14.49;100.00
55010;BME280;40903;51.638;7.528;2023-05-10T00:26:04;100161.91;;;14.48;100.00
55010;BME280;40903;51.638;7.528;2023-05-10T00:28:29;100158.00;;;14.49;100.00
55010;BME280;40903;51.638;7.528;2023-05-10T00:30:54;100156.75;;;14.46;100.00
55010;BME280;40903;51.638;7.528;2023-05-10T00:33:20;100149.97;;;14.44;100.00
55010;BME280;40903;51.638;7.528;2023-05-10T00:35:45;100147.72;;;14.46;100.00
55010;BME280;40903;51.638;7.528;2023-05-10T00:38:11;100148.69;;;14.41;100.00
55010;BME280;40903;51.638;7.528;2023-05-10T00:40:36;100148.09;;;14.36;100.00
55010;BME280;40903;51.638;7.528;2023-05-10T00:43:02;100154.06;;;14.29;100.00
55010;BME280;40903;51.638;7.528;2023-05-10T00:45:28;100156.50;;;14.22;100.00
55010;BME280;40903;51.638;7.528;2023-05-10T00:47:53;100156.34;;;14.19;100.00
55010;BME280;40903;51.638;7.528;2023-05-10T00:50:21;100154.59;;;14.14;100.00
55010;BME280;40903;51.638;7.528;2023-05-10T00:52:46;100162.66;;;14.11;100.00
55010;BME280;40903;51.638;7.528;2023-05-10T00:55:12;100162.19;;;14.09;100.00
55010;BME280;40903;51.638;7.528;2023-05-10T00:57:37;100162.50;;;14.07;100.00
55010;BME280;40903;51.638;7.528;2023-05-10T01:00:03;100159.09;;;14.10;100.00
55010;BME280;40903;51.638;7.528;2023-05-10T01:02:29;100164.25;;;14.12;100.00
55010;BME280;40903;51.638;7.528;2023-05-10T01:04:54;100166.53;;;14.10;100.00
55010;BME280;40903;51.638;7.528;2023-05-10T01:07:20;100164.56;;;14.10;100.00
55010;BME280;40903;51.638;7.528;2023-05-10T01:09:45;100165.38;;;14.11;100.00
55010;BME280;40903;51.638;7.528;2023-05-10T01:12:10;100168.59;;;14.13;100.00
55010;BME280;40903;51.638;7.528;2023-05-10T01:14:36;100160.38;;;14.13;100.00
55010;BME280;40903;51.638;7.528;2023-05-10T01:17:01;100166.69;;;14.13;100.00
55010;BME280;40903;51.638;7.528;2023-05-10T01:19:28;100167.47;;;14.14;100.00
55010;BME280;40903;51.638;7.528;2023-05-10T01:24:31;100168.59;;;14.13;100.00
55010;BME280;40903;51.638;7.528;2023-05-10T01:35:29;100173.63;;;14.11;100.00
55010;BME280;40903;51.638;7.528;2023-05-10T01:37:57;100179.88;;;14.11;100.00
55010;BME280;40903;51.638;7.528;2023-05-10T01:40:32;100179.09;;;14.11;100.00
55010;BME280;40903;51.638;7.528;2023-05-10T01:43:02;100178.28;;;14.10;100.00
55010;BME280;40903;51.638;7.528;2023-05-10T01:45:33;100177.50;;;14.10;100.00
55010;BME280;40903;51.638;7.528;2023-05-10T01:48:06;100185.72;;;14.10;100.00
55010;BME280;40903;51.638;7.528;2023-05-10T01:50:32;100188.13;;;14.11;100.00
55010;BME280;40903;51.638;7.528;2023-05-10T01:52:59;100183.75;;;14.10;100.00
55010;BME280;40903;51.638;7.528;2023-05-10T01:55:27;100193.94;;;14.10;100.00
55010;BME280;40903;51.638;7.528;2023-05-10T01:57:56;100188.47;;;14.10;100.00
55010;BME280;40903;51.638;7.528;2023-05-10T02:00:23;100183.28;;;14.08;100.00
55010;BME280;40903;51.638;7.528;2023-05-10T02:02:49;100190.72;;;14.08;100.00
55010;BME280;40903;51.638;7.528;2023-05-10T02:05:16;100189.13;;;14.07;100.00
55010;BME280;40903;51.638;7.528;2023-05-10T02:07:42;100195.72;;;14.06;100.00
55010;BME280;40903;51.638;7.528;2023-05-10T02:10:08;100195.72;;;14.06;100.00
55010;BME280;40903;51.638;7.528;2023-05-10T02:12:37;100198.94;;;14.08;100.00
55010;BME280;40903;51.638;7.528;2023-05-10T02:15:04;100205.56;;;14.07;100.00
55010;BME280;40903;51.638;7.528;2023-05-10T02:17:31;100201.72;;;13.99;100.00
55010;BME280;40903;51.638;7.528;2023-05-10T02:19:57;100211.84;;;13.99;100.00
55010;BME280;40903;51.638;7.528;2023-05-10T02:22:23;100210.72;;;14.00;100.00
55010;BME280;40903;51.638;7.528;2023-05-10T02:24:49;100212.03;;;13.94;100.00
55010;BME280;40903;51.638;7.528;2023-05-10T02:27:15;100210.41;;;13.93;100.00
55010;BME280;40903;51.638;7.528;2023-05-10T02:29:42;100215.09;;;13.92;100.00
55010;BME280;40903;51.638;7.528;2023-05-10T02:32:08;100212.19;;;13.89;100.00
55010;BME280;40903;51.638;7.528;2023-05-10T02:34:34;100214.13;;;13.88;100.00
55010;BME280;40903;51.638;7.528;2023-05-10T02:37:00;100217.84;;;13.84;100.00
55010;BME280;40903;51.638;7.528;2023-05-10T02:39:27;100218.50;;;13.81;100.00
55010;BME280;40903;51.638;7.528;2023-05-10T02:41:53;100216.88;;;13.80;100.00
55010;BME280;40903;51.638;7.528;2023-05-10T02:44:20;100217.84;;;13.75;100.00
55010;BME280;40903;51.638;7.528;2023-05-10T02:46:46;100217.38;;;13.73;100.00
55010;BME280;40903;51.638;7.528;2023-05-10T02:49:11;100222.53;;;13.75;100.00
55010;BME280;40903;51.638;7.528;2023-05-10T02:51:39;100221.88;;;13.70;100.00
55010;BME280;40903;51.638;7.528;2023-05-10T02:54:12;100222.03;;;13.65;100.00
55010;BME280;40903;51.638;7.528;2023-05-10T02:56:40;100222.69;;;13.62;100.00
55010;BME280;40903;51.638;7.528;2023-05-10T02:59:07;100225.75;;;13.60;100.00
55010;BME280;40903;51.638;7.528;2023-05-10T03:01:32;100226.06;;;13.59;100.00
55010;BME280;40903;51.638;7.528;2023-05-10T03:03:58;100236.06;;;13.55;100.00
55010;BME280;40903;51.638;7.528;2023-05-10T03:06:23;100235.25;;;13.54;100.00
55010;BME280;40903;51.638;7.528;2023-05-10T03:08:48;100234.44;;;13.54;100.00
55010;BME280;40903;51.638;7.528;2023-05-10T03:14:21;100231.38;;;13.47;100.00
55010;BME280;40903;51.638;7.528;2023-05-10T03:16:58;100240.72;;;13.46;100.00
55010;BME280;40903;51.638;7.528;2023-05-10T03:21:51;100233.94;;;13.43;100.00
55010;BME280;40903;51.638;7.528;2023-05-10T03:24:18;100235.06;;;13.42;100.00
55010;BME280;40903;51.638;7.528;2023-05-10T03:26:44;100234.28;;;13.42;100.00
55010;BME280;40903;51.638;7.528;2023-05-10T03:29:11;100248.28;;;13.40;100.00
55010;BME280;40903;51.638;7.528;2023-05-10T03:31:38;100243.13;;;13.39;100.00
55010;BME280;40903;51.638;7.528;2023-05-10T03:34:03;100251.66;;;13.37;100.00
55010;BME280;40903;51.638;7.528;2023-05-10T03:36:28;100252.78;;;13.36;100.00
55010;BME280;40903;51.638;7.528;2023-05-10T03:38:53;100256.66;;;13.35;100.00
55010;BME280;40903;51.638;7.528;2023-05-10T03:41:19;100250.69;;;13.33;100.00
55010;BME280;40903;51.638;7.528;2023-05-10T03:43:45;100269.03;;;13.33;100.00
55010;BME280;40903;51.638;7.528;2023-05-10T03:46:10;100263.56;;;13.33;100.00
55010;BME280;40903;51.638;7.528;2023-05-10T03:48:35;100271.78;;;13.33;100.00
55010;BME280;40903;51.638;7.528;2023-05-10T03:51:01;100265.19;;;13.34;100.00
55010;BME280;40903;51.638;7.528;2023-05-10T03:53:26;100271.47;;;13.34;100.00
55010;BME280;40903;51.638;7.528;2023-05-10T03:55:51;100267.59;;;13.35;100.00
55010;BME280;40903;51.638;7.528;2023-05-10T03:58:17;100273.38;;;13.34;100.00
55010;BME280;40903;51.638;7.528;2023-05-10T04:00:43;100269.88;;;13.33;100.00
55010;BME280;40903;51.638;7.528;2023-05-10T04:03:11;100269.03;;;13.33;100.00
55010;BME280;40903;51.638;7.528;2023-05-10T04:05:37;100267.91;;;13.34;100.00
55010;BME280;40903;51.638;7.528;2023-05-10T04:08:02;100268.72;;;13.34;100.00
55010;BME280;40903;51.638;7.528;2023-05-10T04:10:28;100265.19;;;13.34;100.00
55010;BME280;40903;51.638;7.528;2023-05-10T04:12:53;100263.25;;;13.34;100.00
55010;BME280;40903;51.638;7.528;2023-05-10T04:15:18;100276.63;;;13.36;100.00
55010;BME280;40903;51.638;7.528;2023-05-10T04:17:44;100276.63;;;13.36;100.00
55010;BME280;40903;51.638;7.528;2023-05-10T04:20:09;100278.22;;;13.37;100.00
55010;BME280;40903;51.638;7.528;2023-05-10T04:22:35;100277.13;;;13.38;100.00
55010;BME280;40903;51.638;7.528;2023-05-10T04:25:00;100268.25;;;13.41;100.00
55010;BME280;40903;51.638;7.528;2023-05-10T04:27:25;100272.91;;;13.40;100.00
55010;BME280;40903;51.638;7.528;2023-05-10T04:29:51;100270.19;;;13.40;100.00
55010;BME280;40903;51.638;7.528;2023-05-10T04:32:16;100275.34;;;13.42;100.00
55010;BME280;40903;51.638;7.528;2023-05-10T04:34:43;100279.69;;;13.43;100.00
55010;BME280;40903;51.638;7.528;2023-05-10T04:37:08;100277.44;;;13.45;100.00
55010;BME280;40903;51.638;7.528;2023-05-10T04:39:33;100276.00;;;13.47;100.00
55010;BME280;40903;51.638;7.528;2023-05-10T04:41:58;100276.50;;;13.49;100.00
55010;BME280;40903;51.638;7.528;2023-05-10T04:44:24;100279.72;;;13.51;100.00
55010;BME280;40903;51.638;7.528;2023-05-10T04:46:49;100281.81;;;13.54;100.00
55010;BME280;40903;51.638;7.528;2023-05-10T04:49:14;100287.47;;;13.58;100.00
55010;BME280;40903;51.638;7.528;2023-05-10T04:51:39;100276.16;;;13.59;100.00
55010;BME280;40903;51.638;7.528;2023-05-10T04:54:05;100286.03;;;13.60;100.00
55010;BME280;40903;51.638;7.528;2023-05-10T04:56:33;100290.38;;;13.61;100.00
55010;BME280;40903;51.638;7.528;2023-05-10T04:58:58;100290.88;;;13.63;100.00
55010;BME280;40903;51.638;7.528;2023-05-10T05:01:23;100292.47;;;13.64;100.00
55010;BME280;40903;51.638;7.528;2023-05-10T05:03:48;100293.13;;;13.61;100.00
55010;BME280;40903;51.638;7.528;2023-05-10T05:06:14;100293.44;;;13.60;100.00
55010;BME280;40903;51.638;7.528;2023-05-10T05:08:39;100298.91;;;13.60;100.00
55010;BME280;40903;51.638;7.528;2023-05-10T05:11:04;100308.44;;;13.62;100.00
55010;BME280;40903;51.638;7.528;2023-05-10T05:13:30;100312.78;;;13.63;100.00
55010;BME280;40903;51.638;7.528;2023-05-10T05:15:55;100315.03;;;13.61;100.00
55010;BME280;40903;51.638;7.528;2023-05-10T05:18:21;100315.53;;;13.63;100.00
55010;BME280;40903;51.638;7.528;2023-05-10T05:20:46;100316.00;;;13.65;100.00
55010;BME280;40903;51.638;7.528;2023-05-10T05:23:11;100316.97;;;13.69;100.00
55010;BME280;40903;51.638;7.528;2023-05-10T05:25:36;100315.84;;;13.70;100.00
55010;BME280;40903;51.638;7.528;2023-05-10T05:28:02;100316.81;;;13.74;100.00
55010;BME280;40903;51.638;7.528;2023-05-10T05:30:27;100320.84;;;13.76;100.00
55010;BME280;40903;51.638;7.528;2023-05-10T05:32:52;100319.72;;;13.77;100.00
55010;BME280;40903;51.638;7.528;2023-05-10T05:35:17;100318.59;;;13.78;100.00
55010;BME280;40903;51.638;7.528;2023-05-10T05:37:43;100319.88;;;13.81;100.00
55010;BME280;40903;51.638;7.528;2023-05-10T05:40:08;100318.09;;;13.85;100.00
55010;BME280;40903;51.638;7.528;2023-05-10T05:42:33;100320.19;;;13.88;100.00
55010;BME280;40903;51.638;7.528;2023-05-10T05:44:58;100315.38;;;13.93;100.00
55010;BME280;40903;51.638;7.528;2023-05-10T05:47:24;100314.72;;;13.96;100.00
55010;BME280;40903;51.638;7.528;2023-05-10T05:49:50;100316.19;;;14.02;100.00
55010;BME280;40903;51.638;7.528;2023-05-10T05:52:15;100320.25;;;14.05;100.00
55010;BME280;40903;51.638;7.528;2023-05-10T05:54:40;100331.69;;;14.07;100.00
55010;BME280;40903;51.638;7.528;2023-05-10T05:57:06;100335.22;;;14.07;100.00
55010;BME280;40903;51.638;7.528;2023-05-10T05:59:31;100329.09;;;14.10;100.00
55010;BME280;40903;51.638;7.528;2023-05-10T06:01:56;100330.88;;;14.15;100.00
55010;BME280;40903;51.638;7.528;2023-05-10T06:04:21;100328.63;;;14.17;100.00
55010;BME280;40903;51.638;7.528;2023-05-10T06:06:47;100329.44;;;14.17;100.00
55010;BME280;40903;51.638;7.528;2023-05-10T06:09:12;100341.22;;;14.18;100.00
55010;BME280;40903;51.638;7.528;2023-05-10T06:11:37;100344.13;;;14.21;100.00
55010;BME280;40903;51.638;7.528;2023-05-10T06:14:03;100344.78;;;14.27;100.00
55010;BME280;40903;51.638;7.528;2023-05-10T06:16:33;100342.84;;;14.27;100.00
55010;BME280;40903;51.638;7.528;2023-05-10T06:18:58;100353.47;;;14.29;100.00
55010;BME280;40903;51.638;7.528;2023-05-10T06:21:23;100357.34;;;14.36;100.00
55010;BME280;40903;51.638;7.528;2023-05-10T06:23:48;100363.00;;;14.40;100.00
55010;BME280;40903;51.638;7.528;2023-05-10T06:26:13;100369.13;;;14.45;100.00
55010;BME280;40903;51.638;7.528;2023-05-10T06:28:39;100377.50;;;14.49;100.00
55010;BME280;40903;51.638;7.528;2023-05-10T06:31:05;100365.91;;;14.52;100.00
55010;BME280;40903;51.638;7.528;2023-05-10T06:33:30;100363.81;;;14.57;100.00
55010;BME280;40903;51.638;7.528;2023-05-10T06:35:56;100361.34;;;14.64;100.00
55010;BME280;40903;51.638;7.528;2023-05-10T06:38:21;100370.53;;;14.68;100.00
55010;BME280;40903;51.638;7.528;2023-05-10T06:40:46;100368.28;;;14.70;100.00
55010;BME280;40903;51.638;7.528;2023-05-10T06:43:11;100366.34;;;14.71;100.00
55010;BME280;40903;51.638;7.528;2023-05-10T06:45:37;100372.47;;;14.76;100.00
55010;BME280;40903;51.638;7.528;2023-05-10T06:48:02;100373.13;;;14.82;100.00
55010;BME280;40903;51.638;7.528;2023-05-10T06:50:30;100370.47;;;14.94;100.00
55010;BME280;40903;51.638;7.528;2023-05-10T06:52:55;100376.56;;;15.08;100.00
55010;BME280;40903;51.638;7.528;2023-05-10T06:55:21;100376.38;;;15.30;100.00
55010;BME280;40903;51.638;7.528;2023-05-10T06:57:46;100370.63;;;15.52;100.00
55010;BME280;40903;51.638;7.528;2023-05-10T07:00:12;100372.28;;;15.73;100.00
55010;BME280;40903;51.638;7.528;2023-05-10T07:02:38;100387.53;;;15.91;100.00
55010;BME280;40903;51.638;7.528;2023-05-10T07:05:03;100380.19;;;16.03;100.00
55010;BME280;40903;51.638;7.528;2023-05-10T07:07:29;100372.00;;;16.15;100.00
55010;BME280;40903;51.638;7.528;2023-05-10T07:09:54;100383.06;;;16.27;100.00
55010;BME280;40903;51.638;7.528;2023-05-10T07:12:21;100390.78;;;16.34;100.00
55010;BME280;40903;51.638;7.528;2023-05-10T07:14:46;100391.88;;;16.41;100.00
55010;BME280;40903;51.638;7.528;2023-05-10T07:17:11;100401.31;;;16.32;100.00
55010;BME280;40903;51.638;7.528;2023-05-10T07:19:37;100397.63;;;16.28;100.00
55010;BME280;40903;51.638;7.528;2023-05-10T07:22:02;100405.28;;;16.22;100.00
55010;BME280;40903;51.638;7.528;2023-05-10T07:24:27;100402.06;;;16.20;100.00
55010;BME280;40903;51.638;7.528;2023-05-10T07:26:52;100408.75;;;16.11;100.00
55010;BME280;40903;51.638;7.528;2023-05-10T07:29:18;100404.53;;;16.13;100.00
55010;BME280;40903;51.638;7.528;2023-05-10T07:31:43;100406.41;;;16.21;100.00
55010;BME280;40903;51.638;7.528;2023-05-10T07:34:08;100399.84;;;16.34;100.00
55010;BME280;40903;51.638;7.528;2023-05-10T07:36:34;100407.31;;;16.54;100.00
55010;BME280;40903;51.638;7.528;2023-05-10T07:38:59;100403.06;;;16.77;100.00
55010;BME280;40903;51.638;7.528;2023-05-10T07:41:24;100400.84;;;17.03;100.00
55010;BME280;40903;51.638;7.528;2023-05-10T07:43:49;100405.81;;;17.22;100.00
55010;BME280;40903;51.638;7.528;2023-05-10T07:46:15;100400.16;;;17.51;100.00
55010;BME280;40903;51.638;7.528;2023-05-10T07:48:40;100401.31;;;17.74;100.00
55010;BME280;40903;51.638;7.528;2023-05-10T07:51:06;100398.28;;;18.02;100.00
55010;BME280;40903;51.638;7.528;2023-05-10T07:53:34;100400.81;;;18.19;100.00
55010;BME280;40903;51.638;7.528;2023-05-10T07:56:28;100402.16;;;18.25;100.00
55010;BME280;40903;51.638;7.528;2023-05-10T07:59:02;100401.81;;;18.27;100.00
55010;BME280;40903;51.638;7.528;2023-05-10T08:01:30;100404.47;;;18.23;100.00
55010;BME280;40903;51.638;7.528;2023-05-10T08:03:57;100400.44;;;18.33;100.00
55010;BME280;40903;51.638;7.528;2023-05-10T08:06:22;100401.84;;;18.66;100.00
55010;BME280;40903;51.638;7.528;2023-05-10T08:08:48;100399.97;;;18.70;100.00
55010;BME280;40903;51.638;7.528;2023-05-10T08:11:18;100409.44;;;18.69;100.00
55010;BME280;40903;51.638;7.528;2023-05-10T08:13:44;100421.78;;;18.60;100.00
55010;BME280;40903;51.638;7.528;2023-05-10T08:16:09;100415.81;;;18.58;100.00
55010;BME280;40903;51.638;7.528;2023-05-10T08:18:34;100410.50;;;18.53;100.00
55010;BME280;40903;51.638;7.528;2023-05-10T08:20:59;100412.19;;;18.42;100.00
55010;BME280;40903;51.638;7.528;2023-05-10T08:23:25;100416.69;;;18.62;100.00
55010;BME280;40903;51.638;7.528;2023-05-10T08:25:50;100412.00;;;18.90;100.00
55010;BME280;40903;51.638;7.528;2023-05-10T08:28:16;100422.88;;;18.98;100.00
55010;BME280;40903;51.638;7.528;2023-05-10T08:30:41;100420.66;;;19.04;100.00
55010;BME280;40903;51.638;7.528;2023-05-10T08:33:06;100428.97;;;19.04;100.00
55010;BME280;40903;51.638;7.528;2023-05-10T08:35:31;100428.91;;;19.16;98.81
55010;BME280;40903;51.638;7.528;2023-05-10T08:37:58;100423.25;;;19.24;97.87
55010;BME280;40903;51.638;7.528;2023-05-10T08:40:23;100422.16;;;19.29;92.93
55010;BME280;40903;51.638;7.528;2023-05-10T08:43:10;100427.28;;;19.42;97.04
55010;BME280;40903;51.638;7.528;2023-05-10T08:45:43;100436.19;;;19.67;98.44
55010;BME280;40903;51.638;7.528;2023-05-10T08:48:10;100436.97;;;19.67;93.08
55010;BME280;40903;51.638;7.528;2023-05-10T08:50:37;100433.00;;;19.65;97.31
55010;BME280;40903;51.638;7.528;2023-05-10T08:53:04;100433.94;;;19.57;93.43
55010;BME280;40903;51.638;7.528;2023-05-10T08:55:30;100435.13;;;19.40;94.12
55010;BME280;40903;51.638;7.528;2023-05-10T08:57:55;100447.19;;;19.20;95.44
55010;BME280;40903;51.638;7.528;2023-05-10T09:00:21;100446.16;;;18.97;96.65
55010;BME280;40903;51.638;7.528;2023-05-10T09:02:48;100452.13;;;18.72;94.83
55010;BME280;40903;51.638;7.528;2023-05-10T09:05:14;100452.63;;;18.62;97.74
55010;BME280;40903;51.638;7.528;2023-05-10T09:07:41;100457.47;;;18.53;99.61
55010;BME280;40903;51.638;7.528;2023-05-10T09:10:06;100457.25;;;18.46;99.41
55010;BME280;40903;51.638;7.528;2023-05-10T09:12:31;100456.50;;;18.73;100.00
55010;BME280;40903;51.638;7.528;2023-05-10T09:14:58;100457.38;;;19.04;100.00
55010;BME280;40903;51.638;7.528;2023-05-10T09:17:24;100448.50;;;19.54;99.68
55010;BME280;40903;51.638;7.528;2023-05-10T09:19:56;100459.56;;;19.85;95.20
55010;BME280;40903;51.638;7.528;2023-05-10T09:22:22;100459.81;;;19.95;91.22
55010;BME280;40903;51.638;7.528;2023-05-10T09:24:47;100454.28;;;19.95;93.54
55010;BME280;40903;51.638;7.528;2023-05-10T09:27:12;100469.38;;;19.82;89.81
55010;BME280;40903;51.638;7.528;2023-05-10T09:29:41;100477.41;;;19.72;92.70
55010;BME280;40903;51.638;7.528;2023-05-10T09:32:07;100468.41;;;19.59;92.94
55010;BME280;40903;51.638;7.528;2023-05-10T09:34:32;100477.56;;;19.32;87.35
55010;BME280;40903;51.638;7.528;2023-05-10T09:37:00;100468.28;;;19.13;88.96
55010;BME280;40903;51.638;7.528;2023-05-10T09:39:32;100471.72;;;18.94;92.01
55010;BME280;40903;51.638;7.528;2023-05-10T09:41:59;100470.06;;;18.78;92.65
55010;BME280;40903;51.638;7.528;2023-05-10T09:44:25;100478.25;;;18.62;94.54
55010;BME280;40903;51.638;7.528;2023-05-10T09:46:51;100473.38;;;18.44;96.99
55010;BME280;40903;51.638;7.528;2023-05-10T09:49:17;100472.34;;;18.36;95.20
55010;BME280;40903;51.638;7.528;2023-05-10T09:51:43;100481.19;;;18.42;95.98
55010;BME280;40903;51.638;7.528;2023-05-10T09:54:12;100488.41;;;18.46;94.60
55010;BME280;40903;51.638;7.528;2023-05-10T09:56:38;100488.41;;;18.58;99.39
55010;BME280;40903;51.638;7.528;2023-05-10T09:59:05;100489.91;;;18.56;92.38
55010;BME280;40903;51.638;7.528;2023-05-10T10:01:30;100487.81;;;18.65;93.51
55010;BME280;40903;51.638;7.528;2023-05-10T10:03:56;100493.06;;;18.82;93.49
55010;BME280;40903;51.638;7.528;2023-05-10T10:06:23;100482.03;;;19.09;94.32
55010;BME280;40903;51.638;7.528;2023-05-10T10:08:48;100482.47;;;19.39;92.32
55010;BME280;40903;51.638;7.528;2023-05-10T10:11:13;100475.09;;;19.74;88.68
55010;BME280;40903;51.638;7.528;2023-05-10T10:13:39;100473.59;;;20.22;89.82
55010;BME280;40903;51.638;7.528;2023-05-10T10:16:05;100471.06;;;20.67;83.61
55010;BME280;40903;51.638;7.528;2023-05-10T10:18:30;100470.28;;;21.05;81.19
55010;BME280;40903;51.638;7.528;2023-05-10T10:20:55;100477.94;;;21.30;78.25
55010;BME280;40903;51.638;7.528;2023-05-10T10:23:21;100482.75;;;21.33;74.35
55010;BME280;40903;51.638;7.528;2023-05-10T10:25:46;100474.31;;;21.49;79.32
55010;BME280;40903;51.638;7.528;2023-05-10T10:28:56;100481.84;;;21.48;76.17
55010;BME280;40903;51.638;7.528;2023-05-10T10:31:11;100479.56;;;21.54;76.69
55010;BME280;40903;51.638;7.528;2023-05-10T10:36:11;100475.97;;;21.53;78.78
55010;BME280;40903;51.638;7.528;2023-05-10T10:41:10;100480.66;;;21.49;74.24
55010;BME280;40903;51.638;7.528;2023-05-10T10:43:35;100486.25;;;21.72;73.10
55010;BME280;40903;51.638;7.528;2023-05-10T10:46:11;100476.50;;;21.81;70.40
55010;BME280;40903;51.638;7.528;2023-05-10T10:48:40;100472.25;;;22.09;77.55
55010;BME280;40903;51.638;7.528;2023-05-10T10:51:05;100487.41;;;22.15;68.02
55010;BME280;40903;51.638;7.528;2023-05-10T10:53:30;100480.50;;;22.06;69.07
55010;BME280;40903;51.638;7.528;2023-05-10T10:56:12;100480.31;;;22.18;71.41
55010;BME280;40903;51.638;7.528;2023-05-10T10:58:40;100480.75;;;21.98;68.66
55010;BME280;40903;51.638;7.528;2023-05-10T11:01:10;100474.72;;;21.92;71.12
55010;BME280;40903;51.638;7.528;2023-05-10T11:03:35;100481.88;;;21.93;71.15
55010;BME280;40903;51.638;7.528;2023-05-10T11:06:00;100497.50;;;21.60;69.89
55010;BME280;40903;51.638;7.528;2023-05-10T11:08:27;100497.28;;;20.89;73.37
55010;BME280;40903;51.638;7.528;2023-05-10T11:13:40;100507.69;;;19.95;80.84
55010;BME280;40903;51.638;7.528;2023-05-10T11:16:19;100516.88;;;19.69;84.70
55010;BME280;40903;51.638;7.528;2023-05-10T11:19:04;100515.00;;;19.30;86.78
55010;BME280;40903;51.638;7.528;2023-05-10T11:21:30;100520.81;;;18.85;90.53
55010;BME280;40903;51.638;7.528;2023-05-10T11:23:56;100521.88;;;18.69;92.13
55010;BME280;40903;51.638;7.528;2023-05-10T11:26:22;100526.94;;;18.55;94.73
55010;BME280;40903;51.638;7.528;2023-05-10T11:28:50;100523.53;;;18.58;96.03
55010;BME280;40903;51.638;7.528;2023-05-10T11:31:16;100525.34;;;18.54;96.50
55010;BME280;40903;51.638;7.528;2023-05-10T11:33:43;100532.28;;;18.48;97.13
55010;BME280;40903;51.638;7.528;2023-05-10T11:36:13;100531.34;;;18.56;97.15
55010;BME280;40903;51.638;7.528;2023-05-10T11:38:39;100526.16;;;18.66;96.73
55010;BME280;40903;51.638;7.528;2023-05-10T11:41:04;100525.16;;;18.86;100.00
55010;BME280;40903;51.638;7.528;2023-05-10T11:43:30;100527.44;;;18.96;95.22
55010;BME280;40903;51.638;7.528;2023-05-10T11:45:55;100526.59;;;19.20;98.28
55010;BME280;40903;51.638;7.528;2023-05-10T11:48:21;100519.59;;;19.38;95.57
55010;BME280;40903;51.638;7.528;2023-05-10T11:50:48;100524.16;;;19.46;96.03
55010;BME280;40903;51.638;7.528;2023-05-10T11:53:14;100530.66;;;19.38;91.61
55010;BME280;40903;51.638;7.528;2023-05-10T11:55:39;100527.28;;;19.44;92.17
55010;BME280;40903;51.638;7.528;2023-05-10T11:58:04;100533.41;;;19.38;85.00
55010;BME280;40903;51.638;7.528;2023-05-10T12:00:30;100539.41;;;19.40;88.61
55010;BME280;40903;51.638;7.528;2023-05-10T12:02:56;100538.28;;;19.29;84.08
55010;BME280;40903;51.638;7.528;2023-05-10T12:05:21;100537.34;;;19.37;86.28
55010;BME280;40903;51.638;7.528;2023-05-10T12:07:47;100532.69;;;19.41;86.71
55010;BME280;40903;51.638;7.528;2023-05-10T12:10:12;100544.75;;;19.76;89.26
55010;BME280;40903;51.638;7.528;2023-05-10T12:12:46;100543.81;;;20.14;84.20
55010;BME280;40903;51.638;7.528;2023-05-10T12:15:18;100539.06;;;20.30;83.29
55010;BME280;40903;51.638;7.528;2023-05-10T12:17:44;100554.25;;;20.36;79.28
55010;BME280;40903;51.638;7.528;2023-05-10T12:20:13;100553.69;;;20.46;77.30
55010;BME280;40903;51.638;7.528;2023-05-10T12:22:39;100547.03;;;20.66;75.71
55010;BME280;40903;51.638;7.528;2023-05-10T12:25:05;100558.19;;;20.85;76.28
55010;BME280;40903;51.638;7.528;2023-05-10T12:27:33;100556.38;;;20.93;71.37
55010;BME280;40903;51.638;7.528;2023-05-10T12:29:59;100543.78;;;21.14;71.90
55010;BME280;40903;51.638;7.528;2023-05-10T12:32:36;100551.28;;;21.33;72.43
55010;BME280;40903;51.638;7.528;2023-05-10T12:35:03;100551.72;;;21.16;68.62
55010;BME280;40903;51.638;7.528;2023-05-10T12:37:28;100549.75;;;21.16;68.12
55010;BME280;40903;51.638;7.528;2023-05-10T12:39:54;100550.84;;;21.31;72.55
55010;BME280;40903;51.638;7.528;2023-05-10T12:42:19;100554.72;;;21.45;72.48
55010;BME280;40903;51.638;7.528;2023-05-10T12:44:44;100558.06;;;21.54;74.63
55010;BME280;40903;51.638;7.528;2023-05-10T12:47:09;100566.78;;;21.34;70.14
55010;BME280;40903;51.638;7.528;2023-05-10T12:49:35;100557.34;;;21.38;71.19
55010;BME280;40903;51.638;7.528;2023-05-10T12:52:01;100564.06;;;21.37;70.54
55010;BME280;40903;51.638;7.528;2023-05-10T12:54:26;100562.69;;;21.28;69.67
55010;BME280;40903;51.638;7.528;2023-05-10T12:56:51;100558.81;;;21.13;68.95
55010;BME280;40903;51.638;7.528;2023-05-10T12:59:16;100561.09;;;20.92;72.16
55010;BME280;40903;51.638;7.528;2023-05-10T13:01:41;100563.53;;;20.78;71.60
55010;BME280;40903;51.638;7.528;2023-05-10T13:04:07;100568.31;;;20.62;74.44